Time;durP1;ratioP1;P1;durP2;ratioP2;P2;SDS_P1;SDS_P2;PMS_P1;PMS_P2;Temp;Humidity;BMP_temperature;BMP_pressure;BME280_temperature;BME280_humidity;BME280_pressure;Samples;Min_cycle;Max_cycle;Signal;HPM_P1;HPM_P2
2021/07/19 00:02:23;;;;;;;9.52;5.47;;;19.00;99.90;;;;;;5046345;28;20036;-70
2021/07/19 00:04:51;;;;;;;10.65;5.43;;;19.00;99.90;;;;;;5067004;28;20106;-70
2021/07/19 00:07:18;;;;;;;11.52;5.88;;;19.00;99.90;;;;;;5066102;28;20822;-70
2021/07/19 00:09:46;;;;;;;8.43;5.28;;;18.90;99.90;;;;;;5062918;28;20515;-70
2021/07/19 00:12:16;;;;;;;7.63;5.30;;;18.90;99.90;;;;;;5063411;28;20041;-69
2021/07/19 00:14:46;;;;;;;8.55;5.43;;;18.90;99.90;;;;;;5063487;28;20125;-69
2021/07/19 00:17:16;;;;;;;9.40;5.30;;;18.90;99.90;;;;;;5055194;28;20140;-70
2021/07/19 00:19:43;;;;;;;10.70;5.40;;;18.80;99.90;;;;;;5067428;28;20491;-70
2021/07/19 00:22:10;;;;;;;9.50;5.65;;;18.80;99.90;;;;;;5058952;28;20679;-70
2021/07/19 00:24:38;;;;;;;7.75;5.60;;;18.80;99.90;;;;;;5067420;28;20143;-70
2021/07/19 00:27:05;;;;;;;8.82;5.40;;;18.80;99.90;;;;;;5057915;28;20044;-70
2021/07/19 00:29:33;;;;;;;7.57;5.00;;;18.80;99.90;;;;;;5066339;28;20048;-70
2021/07/19 00:32:01;;;;;;;8.07;5.07;;;18.80;99.90;;;;;;5063381;28;20072;-70
2021/07/19 00:34:28;;;;;;;10.02;5.32;;;18.80;99.90;;;;;;5065487;28;20556;-70
2021/07/19 00:36:55;;;;;;;8.85;5.70;;;18.80;99.90;;;;;;5054244;28;20043;-70
2021/07/19 00:39:25;;;;;;;7.85;5.65;;;18.70;99.90;;;;;;5060697;28;20048;-70
2021/07/19 00:41:53;;;;;;;8.88;5.60;;;18.70;99.90;;;;;;5067721;28;20109;-70
2021/07/19 00:44:21;;;;;;;10.57;5.75;;;18.60;99.90;;;;;;5048991;28;20477;-69
2021/07/19 00:46:50;;;;;;;8.75;5.25;;;18.60;99.90;;;;;;5059858;28;20068;-69
2021/07/19 00:49:20;;;;;;;7.82;5.18;;;18.60;99.90;;;;;;5050672;28;20048;-69
2021/07/19 00:51:49;;;;;;;7.00;5.15;;;18.50;99.90;;;;;;5049528;28;20405;-69
2021/07/19 00:54:20;;;;;;;8.43;5.28;;;18.60;99.90;;;;;;5057765;28;20048;-70
2021/07/19 00:56:48;;;;;;;10.65;5.72;;;18.50;99.90;;;;;;5034403;28;20132;-70
2021/07/19 00:59:23;;;;;;;11.80;5.93;;;18.50;99.90;;;;;;5066412;28;20036;-70
2021/07/19 01:01:54;;;;;;;7.70;5.18;;;18.40;99.90;;;;;;5065155;28;20127;-70
2021/07/19 01:04:24;;;;;;;10.32;5.78;;;18.40;99.90;;;;;;5065599;28;20095;-70
2021/07/19 01:06:58;;;;;;;7.77;5.40;;;18.40;99.90;;;;;;5034894;28;20076;-70
2021/07/19 01:09:30;;;;;;;7.70;5.40;;;18.40;99.90;;;;;;5068802;28;20044;-70
2021/07/19 01:11:59;;;;;;;8.30;5.93;;;18.40;99.90;;;;;;5065183;28;20075;-70
2021/07/19 01:14:28;;;;;;;8.73;5.72;;;18.40;99.90;;;;;;5054732;28;20094;-70
2021/07/19 01:16:56;;;;;;;7.90;5.68;;;18.30;99.90;;;;;;5055596;28;20120;-70
2021/07/19 01:19:32;;;;;;;10.52;5.65;;;18.30;99.90;;;;;;5062511;28;20039;-70
2021/07/19 01:22:11;;;;;;;8.55;5.78;;;18.30;99.90;;;;;;5064903;28;20119;-70
2021/07/19 01:24:47;;;;;;;8.57;5.80;;;18.30;99.90;;;;;;5030203;28;20057;-70
2021/07/19 01:27:45;;;;;;;7.57;5.72;;;18.30;99.90;;;;;;5045254;28;20049;-70
2021/07/19 01:30:12;;;;;;;8.68;5.50;;;18.20;99.90;;;;;;5040292;28;20087;-70
2021/07/19 01:32:43;;;;;;;9.35;5.90;;;18.20;99.90;;;;;;5036366;28;20049;-70
2021/07/19 01:35:14;;;;;;;8.15;5.65;;;18.20;99.90;;;;;;5051521;28;20037;-70
2021/07/19 01:37:44;;;;;;;9.07;6.25;;;18.20;99.90;;;;;;5054711;28;20049;-70
2021/07/19 01:40:19;;;;;;;9.02;5.65;;;18.20;99.90;;;;;;5060528;28;20116;-69
2021/07/19 01:42:48;;;;;;;7.90;5.47;;;18.10;99.90;;;;;;5039961;28;20044;-70
2021/07/19 01:45:16;;;;;;;10.48;5.88;;;18.10;99.90;;;;;;5043824;28;20083;-70
2021/07/19 01:47:46;;;;;;;12.27;6.13;;;18.10;99.90;;;;;;5031544;28;20052;-70
2021/07/19 01:50:15;;;;;;;6.88;5.15;;;18.10;99.90;;;;;;5024769;28;20040;-70
2021/07/19 01:53:02;;;;;;;10.30;5.82;;;18.00;99.90;;;;;;5055603;28;20060;-70
2021/07/19 01:55:35;;;;;;;10.32;6.00;;;18.00;99.90;;;;;;5044843;28;20043;-70
2021/07/19 01:58:07;;;;;;;10.50;6.00;;;18.00;99.90;;;;;;5034924;28;20112;-70
2021/07/19 02:00:38;;;;;;;10.45;6.38;;;18.00;99.90;;;;;;5068544;28;20454;-70
2021/07/19 02:03:09;;;;;;;9.70;6.50;;;18.00;99.90;;;;;;5067099;28;20053;-70
2021/07/19 02:05:44;;;;;;;8.90;6.35;;;18.00;99.90;;;;;;5062864;28;20067;-70
2021/07/19 02:08:16;;;;;;;10.82;6.28;;;18.00;99.90;;;;;;5036700;28;20135;-70
2021/07/19 02:10:57;;;;;;;8.80;5.90;;;18.00;99.90;;;;;;5059379;28;21521;-70
2021/07/19 02:13:27;;;;;;;11.85;6.00;;;18.00;99.90;;;;;;5035288;28;20042;-69
2021/07/19 02:15:57;;;;;;;10.40;6.60;;;18.10;99.90;;;;;;5066338;28;20086;-70
2021/07/19 02:18:32;;;;;;;8.40;5.93;;;18.20;99.90;;;;;;5066218;28;20041;-70
2021/07/19 02:21:04;;;;;;;7.40;5.13;;;18.30;99.90;;;;;;5052699;28;20064;-70
2021/07/19 02:23:39;;;;;;;8.45;5.80;;;18.40;99.90;;;;;;5055881;28;20029;-70
2021/07/19 02:26:26;;;;;;;9.13;5.50;;;18.50;99.90;;;;;;5061000;28;20036;-70
2021/07/19 02:28:54;;;;;;;8.40;5.50;;;18.50;99.90;;;;;;5062278;28;20045;-69
2021/07/19 02:31:22;;;;;;;9.10;6.32;;;18.50;99.90;;;;;;5054671;28;20045;-70
2021/07/19 02:33:51;;;;;;;9.55;5.75;;;18.60;99.90;;;;;;5066343;28;20144;-69
2021/07/19 02:36:25;;;;;;;9.73;5.38;;;18.60;99.90;;;;;;5055065;28;20041;-69
2021/07/19 02:38:55;;;;;;;10.30;6.38;;;18.60;99.90;;;;;;5061662;28;20037;-69
2021/07/19 02:41:27;;;;;;;8.93;5.70;;;18.60;99.90;;;;;;5067872;28;20561;-69
2021/07/19 02:44:05;;;;;;;8.95;5.70;;;18.60;99.90;;;;;;5067214;28;20048;-69
2021/07/19 02:46:53;;;;;;;9.07;5.82;;;18.60;99.90;;;;;;5061008;28;20048;-69
2021/07/19 02:49:22;;;;;;;7.72;5.32;;;18.50;99.90;;;;;;5041204;28;20076;-69
2021/07/19 02:51:51;;;;;;;8.30;5.82;;;18.50;99.90;;;;;;5057738;28;20506;-69
2021/07/19 02:54:21;;;;;;;8.48;5.43;;;18.50;99.90;;;;;;5025109;28;20049;-69
2021/07/19 02:56:50;;;;;;;7.65;5.50;;;18.50;99.90;;;;;;5060648;28;20053;-69
2021/07/19 02:59:20;;;;;;;7.95;5.60;;;18.40;99.90;;;;;;5073056;28;20561;-69
2021/07/19 03:01:54;;;;;;;10.10;6.25;;;18.40;99.90;;;;;;5070593;28;20036;-69
2021/07/19 03:04:24;;;;;;;9.68;6.10;;;18.30;99.90;;;;;;5040182;28;20036;-69
2021/07/19 03:06:51;;;;;;;9.05;5.95;;;18.20;99.90;;;;;;5035825;28;20067;-69
2021/07/19 03:09:23;;;;;;;9.15;5.72;;;18.20;99.90;;;;;;5040898;28;20055;-70
2021/07/19 03:11:52;;;;;;;8.18;5.72;;;18.10;99.90;;;;;;5035870;28;20132;-69
2021/07/19 03:14:25;;;;;;;11.07;5.60;;;18.10;99.90;;;;;;5033006;28;20044;-70
2021/07/19 03:17:02;;;;;;;9.43;5.75;;;18.10;99.90;;;;;;5050245;28;20080;-70
2021/07/19 03:19:33;;;;;;;9.65;5.53;;;18.00;99.90;;;;;;5045271;28;20456;-70
2021/07/19 03:22:01;;;;;;;11.88;6.07;;;18.00;99.90;;;;;;5046279;28;20075;-70
2021/07/19 03:24:48;;;;;;;8.45;5.85;;;18.00;99.90;;;;;;5055528;28;20068;-70
2021/07/19 03:27:20;;;;;;;8.45;5.85;;;17.90;99.90;;;;;;5055276;28;20051;-70
2021/07/19 03:29:51;;;;;;;12.57;6.10;;;17.80;99.90;;;;;;5061447;28;20047;-70
2021/07/19 03:32:20;;;;;;;8.32;5.68;;;17.80;99.90;;;;;;5051998;28;20487;-70
2021/07/19 03:34:53;;;;;;;10.15;6.57;;;17.80;99.90;;;;;;5039473;28;20441;-69
2021/07/19 03:37:22;;;;;;;9.77;6.40;;;17.80;99.90;;;;;;5052014;28;20447;-70
2021/07/19 03:39:52;;;;;;;10.40;6.15;;;17.80;99.90;;;;;;5053629;28;20033;-70
2021/07/19 03:42:22;;;;;;;9.25;5.97;;;17.80;99.90;;;;;;5053233;28;20121;-70
2021/07/19 03:44:52;;;;;;;9.27;6.25;;;17.70;99.90;;;;;;5062981;28;20040;-70
2021/07/19 03:47:22;;;;;;;9.75;5.45;;;17.70;99.90;;;;;;5052338;28;20059;-70
2021/07/19 03:49:55;;;;;;;9.80;6.28;;;17.70;99.90;;;;;;5038961;28;20072;-70
2021/07/19 03:52:26;;;;;;;11.60;6.45;;;17.70;99.90;;;;;;5064719;28;20040;-70
2021/07/19 03:54:54;;;;;;;11.90;6.18;;;17.70;99.90;;;;;;5056556;28;20068;-70
2021/07/19 03:57:27;;;;;;;9.85;6.35;;;17.70;99.90;;;;;;5059139;28;20093;-70
2021/07/19 03:59:55;;;;;;;9.73;5.30;;;17.70;99.90;;;;;;5051781;28;20091;-70
2021/07/19 04:02:27;;;;;;;10.57;6.38;;;17.80;99.90;;;;;;5049798;28;20491;-70
2021/07/19 04:05:04;;;;;;;11.43;6.00;;;17.90;99.90;;;;;;5064693;28;20517;-70
2021/07/19 04:07:40;;;;;;;10.70;5.78;;;18.00;99.90;;;;;;5054918;28;20083;-70
2021/07/19 04:10:14;;;;;;;11.32;6.07;;;18.10;99.90;;;;;;5053557;28;20056;-70
2021/07/19 04:12:51;;;;;;;9.93;6.78;;;18.20;99.90;;;;;;5042309;28;20045;-70
2021/07/19 04:15:26;;;;;;;9.60;5.97;;;18.30;99.90;;;;;;5060992;28;20033;-70
2021/07/19 04:17:54;;;;;;;11.68;6.50;;;18.30;99.90;;;;;;5043012;28;20037;-71
2021/07/19 04:20:31;;;;;;;9.45;6.43;;;18.40;99.90;;;;;;5041592;28;20057;-70
2021/07/19 04:23:00;;;;;;;7.50;5.32;;;18.50;99.90;;;;;;5035282;28;20063;-70
2021/07/19 04:25:29;;;;;;;11.70;7.05;;;18.60;99.90;;;;;;5049387;28;20052;-70
2021/07/19 04:27:57;;;;;;;9.65;5.60;;;18.60;99.90;;;;;;5042765;28;20063;-70
2021/07/19 04:30:37;;;;;;;10.45;5.93;;;18.60;99.90;;;;;;5055473;28;20095;-70
2021/07/19 04:33:07;;;;;;;11.23;5.97;;;18.60;99.90;;;;;;5053025;28;20063;-70
2021/07/19 04:35:34;;;;;;;10.10;6.18;;;18.70;99.90;;;;;;5047878;28;20091;-70
2021/07/19 04:38:06;;;;;;;11.33;6.37;;;18.70;99.90;;;;;;5065392;28;20024;-70
2021/07/19 04:40:33;;;;;;;14.43;6.90;;;18.80;99.90;;;;;;5034710;28;20052;-70
2021/07/19 04:43:01;;;;;;;11.98;6.90;;;18.80;99.90;;;;;;5047652;28;20041;-70
2021/07/19 04:45:28;;;;;;;13.20;7.35;;;18.80;99.90;;;;;;5046817;28;20079;-70
2021/07/19 04:47:55;;;;;;;10.98;6.00;;;18.90;99.90;;;;;;5060140;28;20084;-70
2021/07/19 04:50:23;;;;;;;13.90;7.45;;;19.00;99.90;;;;;;5051374;28;20555;-70
2021/07/19 04:53:07;;;;;;;10.88;6.75;;;19.10;99.90;;;;;;5049713;28;20048;-70
2021/07/19 04:55:36;;;;;;;15.27;7.03;;;19.20;99.90;;;;;;5056586;28;20074;-70
2021/07/19 04:58:06;;;;;;;13.98;6.85;;;19.20;99.90;;;;;;5069741;28;20068;-70
2021/07/19 05:00:35;;;;;;;10.07;6.43;;;19.20;99.90;;;;;;5038422;28;20074;-70
2021/07/19 05:03:04;;;;;;;12.52;7.38;;;19.20;99.90;;;;;;5053935;28;20041;-70
2021/07/19 05:05:33;;;;;;;10.70;6.28;;;19.30;99.90;;;;;;5059434;28;20048;-69
2021/07/19 05:08:02;;;;;;;10.45;6.70;;;19.30;99.90;;;;;;5062130;28;20490;-70
2021/07/19 05:10:30;;;;;;;11.40;5.97;;;19.40;99.90;;;;;;5068113;28;20139;-70
2021/07/19 05:12:58;;;;;;;12.18;6.32;;;19.50;99.90;;;;;;5070792;28;20052;-70
2021/07/19 05:15:25;;;;;;;9.95;6.43;;;19.40;99.90;;;;;;5069694;28;20056;-70
2021/07/19 05:17:53;;;;;;;11.45;7.72;;;19.50;99.90;;;;;;5059226;28;20119;-70
2021/07/19 05:20:22;;;;;;;11.57;7.30;;;19.40;99.90;;;;;;5070836;28;20052;-70
2021/07/19 05:22:54;;;;;;;10.35;6.57;;;19.50;99.90;;;;;;5056595;28;20056;-70
2021/07/19 05:25:25;;;;;;;8.85;5.80;;;19.50;99.90;;;;;;5069924;28;20045;-70
2021/07/19 05:28:10;;;;;;;10.77;6.22;;;19.50;99.90;;;;;;5063669;28;20440;-70
2021/07/19 05:30:45;;;;;;;10.90;6.82;;;19.50;99.90;;;;;;5060836;28;20076;-70
2021/07/19 05:33:13;;;;;;;8.85;6.20;;;19.50;99.90;;;;;;5062781;28;20070;-70
2021/07/19 05:35:41;;;;;;;10.40;7.25;;;19.40;99.90;;;;;;5016161;28;20069;-69
2021/07/19 05:38:08;;;;;;;10.85;6.78;;;19.50;99.90;;;;;;5041498;28;20095;-69
2021/07/19 05:40:39;;;;;;;8.65;6.00;;;19.50;99.90;;;;;;5028641;28;20063;-70
2021/07/19 05:43:06;;;;;;;11.60;7.25;;;19.60;99.90;;;;;;5034420;28;20132;-70
2021/07/19 05:45:33;;;;;;;12.40;7.75;;;19.80;99.90;;;;;;5035774;28;20041;-71
2021/07/19 05:48:01;;;;;;;12.05;8.57;;;19.90;99.90;;;;;;5014725;28;20048;-70
2021/07/19 05:50:29;;;;;;;9.93;7.18;;;20.10;99.90;;;;;;5034854;28;20045;-70
2021/07/19 05:52:57;;;;;;;10.18;7.03;;;20.20;99.90;;;;;;5055771;28;20786;-71
2021/07/19 05:55:25;;;;;;;12.68;7.38;;;20.40;99.90;;;;;;5053119;28;20094;-70
2021/07/19 05:57:56;;;;;;;12.05;6.70;;;20.70;99.90;;;;;;5066769;28;20044;-70
2021/07/19 06:00:24;;;;;;;8.43;6.30;;;20.90;99.90;;;;;;5064424;28;20585;-70
2021/07/19 06:02:51;;;;;;;8.25;6.07;;;21.20;99.90;;;;;;5056770;28;20484;-71
2021/07/19 06:05:18;;;;;;;11.38;6.95;;;21.40;99.90;;;;;;5042735;28;20041;-70
2021/07/19 06:07:46;;;;;;;10.57;7.10;;;21.40;99.90;;;;;;5053932;28;20040;-70
2021/07/19 06:10:14;;;;;;;11.27;7.05;;;21.50;99.90;;;;;;5049173;28;20128;-69
2021/07/19 06:12:42;;;;;;;8.85;5.50;;;21.70;99.90;;;;;;5040687;28;20044;-69
2021/07/19 06:15:11;;;;;;;12.70;7.07;;;21.70;99.90;;;;;;5062811;28;20044;-70
2021/07/19 06:17:40;;;;;;;12.38;7.57;;;21.90;99.90;;;;;;5038467;28;20041;-70
2021/07/19 06:20:13;;;;;;;11.82;6.50;;;21.70;99.90;;;;;;5065455;28;20116;-70
2021/07/19 06:22:42;;;;;;;14.00;6.25;;;21.60;99.90;;;;;;5044377;28;20528;-69
2021/07/19 06:25:11;;;;;;;7.75;5.88;;;21.70;99.90;;;;;;5052647;28;20055;-69
2021/07/19 06:27:39;;;;;;;12.25;7.07;;;21.80;99.90;;;;;;5063957;28;20044;-69
2021/07/19 06:30:12;;;;;;;10.60;6.80;;;21.90;99.90;;;;;;5046072;28;20048;-69
2021/07/19 06:32:39;;;;;;;10.52;5.82;;;22.00;99.90;;;;;;5061633;28;20045;-69
2021/07/19 06:35:07;;;;;;;11.00;6.78;;;22.10;99.90;;;;;;5041291;28;20038;-69
2021/07/19 06:37:35;;;;;;;8.90;6.47;;;22.20;99.90;;;;;;5058183;28;20033;-69
2021/07/19 06:40:04;;;;;;;9.70;6.63;;;22.30;99.90;;;;;;5066495;28;20032;-68
2021/07/19 06:42:32;;;;;;;9.50;5.78;;;22.20;99.90;;;;;;5063486;28;20141;-69
2021/07/19 06:45:06;;;;;;;9.27;5.97;;;22.30;99.90;;;;;;5048597;28;20040;-68
2021/07/19 06:47:35;;;;;;;10.10;6.45;;;22.30;99.90;;;;;;5053308;28;20044;-68
2021/07/19 06:50:05;;;;;;;13.85;8.02;;;22.30;99.90;;;;;;5054549;28;20033;-68
2021/07/19 06:52:33;;;;;;;15.85;9.63;;;22.30;99.90;;;;;;5048463;28;20499;-68
2021/07/19 06:55:01;;;;;;;9.85;6.00;;;22.20;99.90;;;;;;5041138;28;20144;-68
2021/07/19 06:57:28;;;;;;;8.82;5.72;;;22.20;99.90;;;;;;5049901;28;20132;-68
2021/07/19 06:59:56;;;;;;;9.38;5.88;;;22.30;99.90;;;;;;5043114;28;20041;-68
2021/07/19 07:02:23;;;;;;;11.77;6.32;;;22.20;99.90;;;;;;5046869;28;20505;-68
2021/07/19 07:04:51;;;;;;;9.20;5.78;;;22.30;99.90;;;;;;5034882;28;20546;-68
2021/07/19 07:07:18;;;;;;;8.95;6.15;;;22.30;99.90;;;;;;5065292;28;20112;-68
2021/07/19 07:09:45;;;;;;;11.18;5.80;;;22.40;99.90;;;;;;5040547;28;20537;-68
2021/07/19 07:12:21;;;;;;;9.20;5.57;;;22.50;99.90;;;;;;5034976;28;20117;-68
2021/07/19 07:14:48;;;;;;;9.35;5.90;;;22.40;99.90;;;;;;5023170;28;20111;-69
2021/07/19 07:17:16;;;;;;;9.13;6.28;;;22.50;99.90;;;;;;5033633;28;20140;-68
2021/07/19 07:19:47;;;;;;;10.63;5.88;;;22.60;99.90;;;;;;5053880;28;20068;-68
2021/07/19 07:22:14;;;;;;;9.57;5.82;;;22.60;99.90;;;;;;5054671;28;20132;-68
2021/07/19 07:24:42;;;;;;;8.90;6.22;;;22.60;99.90;;;;;;5053148;28;20041;-68
2021/07/19 07:27:10;;;;;;;9.02;5.25;;;22.70;99.90;;;;;;5057153;28;20064;-68
2021/07/19 07:29:38;;;;;;;8.00;5.40;;;22.80;99.90;;;;;;5058647;28;20076;-68
2021/07/19 07:32:06;;;;;;;6.82;4.55;;;22.80;99.90;;;;;;5047049;28;20090;-68
2021/07/19 07:34:35;;;;;;;9.35;4.60;;;22.90;99.90;;;;;;5029095;28;20064;-68
2021/07/19 07:37:03;;;;;;;9.75;4.68;;;22.90;99.90;;;;;;5041509;28;20387;-68
2021/07/19 07:39:30;;;;;;;7.00;4.82;;;23.10;99.90;;;;;;5033722;28;20395;-67
2021/07/19 07:41:58;;;;;;;8.35;5.28;;;23.20;99.90;;;;;;5028163;28;20064;-68
2021/07/19 07:44:28;;;;;;;9.18;5.00;;;23.30;99.90;;;;;;5036763;28;20045;-67
2021/07/19 07:46:56;;;;;;;7.40;4.63;;;23.30;99.90;;;;;;5034901;28;20606;-68
2021/07/19 07:49:26;;;;;;;6.38;4.53;;;23.40;99.90;;;;;;5055715;28;20471;-68
2021/07/19 07:51:55;;;;;;;8.75;5.35;;;23.40;99.90;;;;;;5053820;28;20132;-68
2021/07/19 07:54:27;;;;;;;6.65;4.25;;;23.50;99.90;;;;;;5048748;28;20069;-68
2021/07/19 07:56:55;;;;;;;10.68;6.20;;;23.60;99.90;;;;;;5042293;28;20041;-68
2021/07/19 07:59:29;;;;;;;9.90;4.35;;;23.70;99.90;;;;;;5045369;28;20045;-68
2021/07/19 08:01:58;;;;;;;8.55;4.00;;;23.80;99.90;;;;;;5050913;28;20122;-68
2021/07/19 08:04:28;;;;;;;7.97;4.03;;;23.90;99.90;;;;;;5041891;28;20051;-68
2021/07/19 08:06:56;;;;;;;9.85;4.07;;;24.00;99.90;;;;;;5055800;28;20096;-68
2021/07/19 08:09:24;;;;;;;6.72;4.05;;;24.00;99.90;;;;;;5045491;28;20080;-68
2021/07/19 08:11:52;;;;;;;6.15;3.75;;;24.20;99.90;;;;;;5057633;28;20106;-69
2021/07/19 08:14:19;;;;;;;6.28;3.95;;;24.30;99.90;;;;;;5060141;28;20162;-68
2021/07/19 08:16:47;;;;;;;9.18;5.80;;;24.40;99.90;;;;;;5051908;28;20695;-69
2021/07/19 08:19:14;;;;;;;11.35;5.63;;;24.60;99.90;;;;;;5052240;28;20403;-68
2021/07/19 08:21:42;;;;;;;8.80;5.72;;;24.80;99.90;;;;;;5054053;28;20053;-69
2021/07/19 08:24:10;;;;;;;7.32;4.50;;;25.00;99.90;;;;;;5049084;28;20049;-68
2021/07/19 08:26:38;;;;;;;6.70;3.85;;;25.30;99.90;;;;;;5033045;28;20108;-68
2021/07/19 08:29:05;;;;;;;15.50;5.90;;;25.40;99.90;;;;;;5044411;28;20269;-68
2021/07/19 08:31:34;;;;;;;7.70;4.07;;;25.40;99.90;;;;;;5043281;28;20068;-68
2021/07/19 08:34:04;;;;;;;6.35;3.80;;;25.50;99.90;;;;;;5057401;28;20480;-68
2021/07/19 08:36:31;;;;;;;8.32;4.03;;;25.30;99.90;;;;;;5054054;28;20627;-68
2021/07/19 08:38:59;;;;;;;10.00;3.40;;;25.40;99.90;;;;;;5057161;28;20403;-68
2021/07/19 08:41:26;;;;;;;8.60;3.97;;;25.50;99.90;;;;;;5050983;28;20586;-68
2021/07/19 08:43:56;;;;;;;7.38;3.80;;;25.40;99.90;;;;;;5056352;28;20570;-68
2021/07/19 08:46:24;;;;;;;8.15;3.75;;;25.30;99.90;;;;;;5035182;28;20135;-68
2021/07/19 08:48:52;;;;;;;9.23;3.63;;;25.50;99.90;;;;;;5060576;28;20044;-68
2021/07/19 08:51:21;;;;;;;7.10;3.40;;;25.80;99.90;;;;;;5059578;28;20055;-68
2021/07/19 08:53:51;;;;;;;6.78;3.67;;;26.10;99.90;;;;;;5067823;28;20064;-68
2021/07/19 08:56:18;;;;;;;13.88;3.80;;;26.50;99.90;;;;;;5068209;28;20051;-68
2021/07/19 08:58:46;;;;;;;7.00;3.83;;;26.60;99.90;;;;;;5058545;28;20566;-68
2021/07/19 09:01:14;;;;;;;5.45;3.03;;;26.40;99.90;;;;;;5057804;28;20041;-68
2021/07/19 09:03:42;;;;;;;6.75;3.28;;;26.20;99.90;;;;;;5048875;28;20044;-68
2021/07/19 09:06:11;;;;;;;6.45;3.67;;;25.90;99.90;;;;;;5047855;28;20061;-68
2021/07/19 09:08:49;;;;;;;8.55;3.90;;;25.80;99.90;;;;;;5039939;28;20045;-68
2021/07/19 09:11:18;;;;;;;8.63;4.20;;;25.70;99.90;;;;;;5029243;28;20052;-68
2021/07/19 09:14:02;;;;;;;6.38;4.00;;;25.60;99.90;;;;;;5056487;28;20076;-69
2021/07/19 09:16:44;;;;;;;6.70;3.63;;;25.60;99.90;;;;;;5056811;28;20446;-68
2021/07/19 09:19:15;;;;;;;7.25;3.85;;;25.60;99.90;;;;;;5058045;28;20066;-68
2021/07/19 09:21:44;;;;;;;8.05;3.85;;;25.80;99.90;;;;;;5060118;28;20075;-69
2021/07/19 09:24:14;;;;;;;11.02;4.32;;;26.10;99.90;;;;;;5039317;28;20044;-69
2021/07/19 09:26:42;;;;;;;8.30;4.53;;;26.20;99.90;;;;;;5034666;28;20072;-68
2021/07/19 09:29:13;;;;;;;8.02;4.30;;;26.40;99.90;;;;;;5031312;28;20055;-68
2021/07/19 09:31:42;;;;;;;7.15;4.00;;;26.40;99.90;;;;;;5043072;28;20128;-68
2021/07/19 09:34:28;;;;;;;6.93;4.10;;;26.70;99.90;;;;;;5067540;28;20429;-69
2021/07/19 09:37:04;;;;;;;8.40;4.40;;;27.10;99.90;;;;;;5062954;28;20044;-69
2021/07/19 09:39:42;;;;;;;7.78;4.47;;;27.50;99.90;;;;;;5043085;28;20049;-69
2021/07/19 09:42:17;;;;;;;7.85;3.90;;;27.90;99.90;;;;;;5048794;28;20551;-69
2021/07/19 09:44:52;;;;;;;7.05;4.18;;;28.20;99.90;;;;;;5031074;28;20049;-69
2021/07/19 09:47:32;;;;;;;6.47;3.92;;;27.90;99.90;;;;;;5044972;28;20041;-69
2021/07/19 09:50:02;;;;;;;7.15;3.92;;;28.10;99.90;;;;;;5060795;28;20055;-69
2021/07/19 09:52:34;;;;;;;6.85;3.90;;;28.30;99.90;;;;;;5045214;28;20399;-69
2021/07/19 09:55:01;;;;;;;7.43;3.85;;;28.30;99.90;;;;;;5047405;28;20060;-69
2021/07/19 09:57:29;;;;;;;7.35;4.25;;;28.40;99.90;;;;;;5045604;28;20068;-69
2021/07/19 09:59:58;;;;;;;6.53;3.95;;;28.10;99.90;;;;;;5050633;28;20039;-70
2021/07/19 10:02:40;;;;;;;6.72;3.80;;;28.10;99.90;;;;;;5047392;28;20132;-70
2021/07/19 10:05:21;;;;;;;7.25;3.78;;;28.20;99.90;;;;;;5053104;28;20124;-69
2021/07/19 10:07:48;;;;;;;6.57;4.18;;;28.10;99.90;;;;;;5042381;28;20045;-70
2021/07/19 10:10:17;;;;;;;8.18;5.00;;;28.10;99.90;;;;;;5053139;28;20055;-70
2021/07/19 10:12:45;;;;;;;9.32;5.45;;;28.30;99.90;;;;;;5053518;28;20040;-69
2021/07/19 10:15:12;;;;;;;7.75;4.80;;;28.40;99.90;;;;;;5058340;28;20056;-68
2021/07/19 10:17:53;;;;;;;9.00;5.30;;;28.40;99.90;;;;;;5050640;28;20037;-69
2021/07/19 10:20:20;;;;;;;9.47;5.17;;;28.60;99.90;;;;;;5064795;28;20036;-68
2021/07/19 10:22:48;;;;;;;7.47;5.13;;;28.30;99.90;;;;;;5059794;28;20037;-69
2021/07/19 10:25:16;;;;;;;7.65;4.63;;;28.20;99.90;;;;;;5056053;28;20049;-69
2021/07/19 10:27:45;;;;;;;6.75;5.13;;;28.20;99.90;;;;;;5062469;28;20041;-68
2021/07/19 10:30:13;;;;;;;9.50;4.97;;;28.10;99.90;;;;;;5055884;28;20360;-69
2021/07/19 10:32:40;;;;;;;13.55;5.53;;;28.20;99.90;;;;;;5045708;28;20123;-69
2021/07/19 10:35:09;;;;;;;9.80;4.95;;;28.60;99.90;;;;;;5065159;28;20111;-69
2021/07/19 10:37:50;;;;;;;6.82;4.65;;;28.80;99.90;;;;;;5060763;28;20408;-69
2021/07/19 10:40:29;;;;;;;7.82;5.35;;;29.00;99.90;;;;;;5043574;28;20045;-69
2021/07/19 10:43:27;;;;;;;7.05;4.50;;;29.10;99.90;;;;;;5061132;28;20116;-69
2021/07/19 10:46:07;;;;;;;6.93;4.15;;;28.90;99.90;;;;;;5045724;28;20041;-69
2021/07/19 10:48:35;;;;;;;7.22;4.57;;;29.00;99.90;;;;;;5035757;28;20095;-69
2021/07/19 10:51:18;;;;;;;8.32;5.10;;;29.00;99.90;;;;;;5042369;28;20037;-69
2021/07/19 10:53:45;;;;;;;7.85;4.60;;;29.00;99.90;;;;;;5030941;28;20463;-69
2021/07/19 10:56:14;;;;;;;7.47;4.30;;;29.20;99.90;;;;;;5048920;28;20427;-69
2021/07/19 10:58:48;;;;;;;7.60;4.45;;;29.30;99.90;;;;;;5045917;28;20045;-69
2021/07/19 11:01:22;;;;;;;6.88;4.60;;;29.30;99.90;;;;;;5024988;28;20534;-68
2021/07/19 11:03:52;;;;;;;7.93;4.65;;;29.10;99.90;;;;;;5026549;28;20045;-69
2021/07/19 11:06:32;;;;;;;9.13;4.25;;;28.80;99.90;;;;;;5028467;28;20046;-69
2021/07/19 11:09:03;;;;;;;8.73;4.30;;;28.70;99.90;;;;;;5035957;28;20072;-69
2021/07/19 11:11:39;;;;;;;6.63;3.72;;;28.60;99.90;;;;;;5038398;28;20115;-69
2021/07/19 11:14:11;;;;;;;9.70;3.92;;;28.80;99.90;;;;;;5021358;28;20119;-70
2021/07/19 11:16:42;;;;;;;6.93;3.95;;;28.70;99.90;;;;;;5035919;28;20108;-70
2021/07/19 11:19:10;;;;;;;7.18;4.15;;;29.00;99.90;;;;;;5014047;28;20524;-70
2021/07/19 11:21:38;;;;;;;8.93;4.43;;;29.20;99.90;;;;;;5022370;28;20094;-70
2021/07/19 11:24:18;;;;;;;7.60;4.28;;;29.30;99.90;;;;;;5023370;28;20574;-70
2021/07/19 11:26:53;;;;;;;11.73;4.55;;;29.70;99.90;;;;;;5014976;28;20531;-70
2021/07/19 11:29:35;;;;;;;8.15;4.80;;;30.20;99.90;;;;;;5021458;28;20114;-70
2021/07/19 11:32:26;;;;;;;10.38;4.35;;;30.20;99.90;;;;;;5036027;28;20091;-70
2021/07/19 11:35:12;;;;;;;5.95;3.88;;;30.40;99.90;;;;;;5036605;28;20045;-70
2021/07/19 11:37:44;;;;;;;8.32;4.07;;;30.50;99.90;;;;;;5030436;28;20157;-71
2021/07/19 11:40:25;;;;;;;9.52;4.28;;;30.90;99.90;;;;;;5028215;28;20092;-70
2021/07/19 11:42:55;;;;;;;8.40;4.80;;;31.30;99.90;;;;;;5024063;28;20128;-70
2021/07/19 11:45:23;;;;;;;8.63;4.80;;;31.10;99.90;;;;;;5035851;28;20861;-70
2021/07/19 11:47:53;;;;;;;7.07;4.65;;;31.00;99.90;;;;;;5007489;28;20103;-71
2021/07/19 11:50:23;;;;;;;10.35;4.90;;;31.10;99.90;;;;;;5038478;28;20049;-70
2021/07/19 11:52:53;;;;;;;8.73;5.00;;;31.00;99.90;;;;;;5029200;28;20041;-69
2021/07/19 11:55:24;;;;;;;8.73;4.93;;;31.20;99.90;;;;;;5026946;28;20061;-69
2021/07/19 11:57:55;;;;;;;11.20;5.03;;;31.20;99.90;;;;;;4994650;28;20048;-69
2021/07/19 12:00:37;;;;;;;9.07;5.13;;;31.30;99.90;;;;;;5011788;28;20045;-68
2021/07/19 12:03:06;;;;;;;11.43;5.40;;;31.10;99.90;;;;;;5029843;28;20830;-68
2021/07/19 12:05:58;;;;;;;7.95;4.75;;;31.20;99.90;;;;;;5042212;28;20137;-68
2021/07/19 12:08:33;;;;;;;9.10;5.05;;;31.40;99.90;;;;;;5033060;28;20053;-68
2021/07/19 12:11:06;;;;;;;10.30;5.05;;;31.60;99.90;;;;;;5044017;28;20060;-68
2021/07/19 12:13:39;;;;;;;9.25;5.25;;;31.70;99.90;;;;;;5036031;28;20118;-68
2021/07/19 12:16:08;;;;;;;11.80;5.70;;;32.10;99.90;;;;;;5034209;28;20584;-68
2021/07/19 12:18:42;;;;;;;13.32;6.03;;;32.40;99.90;;;;;;5027785;28;20046;-68
2021/07/19 12:21:15;;;;;;;9.68;5.95;;;32.60;99.90;;;;;;5044435;28;20033;-68
2021/07/19 12:23:47;;;;;;;10.77;6.75;;;32.60;99.90;;;;;;5028177;28;20050;-68
2021/07/19 12:26:31;;;;;;;9.02;6.28;;;32.80;99.90;;;;;;5024358;28;20041;-68
2021/07/19 12:29:10;;;;;;;8.05;5.32;;;33.10;99.90;;;;;;5006072;28;20127;-68
2021/07/19 12:32:00;;;;;;;11.13;5.88;;;33.30;99.90;;;;;;5030595;28;20056;-68
2021/07/19 12:34:30;;;;;;;12.27;6.40;;;33.20;99.90;;;;;;5030571;28;20033;-69
2021/07/19 12:37:01;;;;;;;11.65;7.72;;;33.00;99.90;;;;;;5034882;28;20037;-69
2021/07/19 12:39:30;;;;;;;10.97;6.30;;;33.10;99.90;;;;;;5032476;28;20095;-68
2021/07/19 12:41:58;;;;;;;11.10;6.20;;;33.50;99.90;;;;;;5028206;28;20069;-68
2021/07/19 12:44:29;;;;;;;10.15;6.10;;;32.90;99.90;;;;;;5016676;28;20063;-68
2021/07/19 12:46:57;;;;;;;10.93;7.57;;;33.20;98.60;;;;;;5034566;28;20033;-68
2021/07/19 12:49:31;;;;;;;9.13;6.78;;;33.80;98.20;;;;;;5024128;28;20073;-68
2021/07/19 12:52:19;;;;;;;12.27;5.65;;;34.20;97.10;;;;;;5027447;28;20049;-69
2021/07/19 12:55:12;;;;;;;12.55;7.03;;;34.80;95.40;;;;;;5030921;28;20125;-68
2021/07/19 12:57:42;;;;;;;9.95;6.72;;;34.80;94.10;;;;;;5032184;28;20072;-69
2021/07/19 13:00:12;;;;;;;10.60;6.63;;;34.50;93.50;;;;;;5039745;28;20049;-68
2021/07/19 13:02:41;;;;;;;9.52;6.97;;;34.90;94.00;;;;;;5034868;28;20449;-69
2021/07/19 13:05:16;;;;;;;10.57;6.53;;;35.00;93.90;;;;;;5033540;28;20429;-68